Time;durP1;ratioP1;P1;durP2;ratioP2;P2;SDS_P1;SDS_P2;PMS_P1;PMS_P2;Temp;Humidity;BMP_temperature;BMP_pressure;BME280_temperature;BME280_humidity;BME280_pressure;Samples;Min_cycle;Max_cycle;Signal;HPM_P1;HPM_P2
2023/05/12 00:00:39;;;;;;;;;;;20.10;65.90;;;;;;5096279;27;42937;-83
2023/05/12 00:03:04;;;;;;;;;;;20.00;65.70;;;;;;5100103;27;43345;-83
2023/05/12 00:05:30;;;;;;;;;;;19.90;65.80;;;;;;5104844;27;43066;-81
2023/05/12 00:07:55;;;;;;;;;;;20.00;65.90;;;;;;5125636;27;43349;-83
2023/05/12 00:10:21;;;;;;;;;;;20.00;66.00;;;;;;5109027;27;42903;-82
2023/05/12 00:12:47;;;;;;;;;;;20.00;65.70;;;;;;5105232;27;42983;-82
2023/05/12 00:15:12;;;;;;;;;;;19.80;65.90;;;;;;5086337;27;42916;-83
2023/05/12 00:17:38;;;;;;;;;;;19.80;65.90;;;;;;5086778;27;43563;-83
2023/05/12 00:20:03;;;;;;;;;;;20.00;65.80;;;;;;5109003;27;42966;-82
2023/05/12 00:22:30;;;;;;;;;;;20.10;66.20;;;;;;5106907;27;44747;-82
2023/05/12 00:24:55;;;;;;;;;;;20.00;66.00;;;;;;5129617;27;43011;-82
2023/05/12 00:27:21;;;;;;;;;;;20.00;66.20;;;;;;5129609;27;43710;-82
2023/05/12 00:29:46;;;;;;;;;;;20.00;66.10;;;;;;5128247;27;42928;-82
2023/05/12 00:32:12;;;;;;;;;;;20.10;66.30;;;;;;5129124;27;42860;-81
2023/05/12 00:34:37;;;;;;;;;;;20.00;66.20;;;;;;5129325;27;42881;-82
2023/05/12 00:37:03;;;;;;;;;;;20.10;66.30;;;;;;5129063;27;43118;-83
2023/05/12 00:39:28;;;;;;;;;;;20.00;66.40;;;;;;5128969;27;42793;-82
2023/05/12 00:41:55;;;;;;;;;;;20.00;66.30;;;;;;5128711;27;42970;-82
2023/05/12 00:44:21;;;;;;;;;;;20.10;66.60;;;;;;5110013;27;42843;-83
2023/05/12 00:46:46;;;;;;;;;;;20.10;66.40;;;;;;5128699;27;44239;-82
2023/05/12 00:49:12;;;;;;;;;;;20.00;66.40;;;;;;5128071;27;42774;-83
2023/05/12 00:51:38;;;;;;;;;;;20.10;66.40;;;;;;5128063;27;43764;-83
2023/05/12 00:54:04;;;;;;;;;;;20.00;66.40;;;;;;5128903;27;43026;-82
2023/05/12 00:56:30;;;;;;;;;;;20.00;66.40;;;;;;5128359;27;44060;-83
2023/05/12 00:58:55;;;;;;;;;;;20.00;66.40;;;;;;5112453;27;42947;-82
2023/05/12 01:01:21;;;;;;;;;;;20.10;66.50;;;;;;5107465;27;43516;-82
2023/05/12 01:03:46;;;;;;;;;;;20.10;66.50;;;;;;5107632;27;43117;-82
2023/05/12 01:06:15;;;;;;;;;;;19.90;66.60;;;;;;5102838;27;42988;-81
2023/05/12 01:08:41;;;;;;;;;;;20.10;66.70;;;;;;5119057;27;42882;-82
2023/05/12 01:11:06;;;;;;;;;;;20.00;66.70;;;;;;5109569;27;44423;-83
2023/05/12 01:13:32;;;;;;;;;;;20.30;67.00;;;;;;5110151;27;42794;-82
2023/05/12 01:15:59;;;;;;;;;;;20.00;66.40;;;;;;5107633;27;43000;-82
2023/05/12 01:18:25;;;;;;;;;;;19.90;66.40;;;;;;5106954;27;42943;-83
2023/05/12 01:20:52;;;;;;;;;;;20.00;66.90;;;;;;5104948;27;43604;-82
2023/05/12 01:23:18;;;;;;;;;;;20.00;66.80;;;;;;5106430;27;43057;-81
2023/05/12 01:25:45;;;;;;;;;;;20.10;66.60;;;;;;5106050;27;44092;-82
2023/05/12 01:28:11;;;;;;;;;;;20.00;66.60;;;;;;5106867;27;42916;-82
2023/05/12 01:30:40;;;;;;;;;;;20.00;66.90;;;;;;5106216;27;43580;-82
2023/05/12 01:33:06;;;;;;;;;;;20.10;67.00;;;;;;5104136;27;43309;-83
2023/05/12 01:35:32;;;;;;;;;;;20.10;66.40;;;;;;5106611;27;43722;-83
2023/05/12 01:37:57;;;;;;;;;;;20.20;66.70;;;;;;5102501;27;42928;-83
2023/05/12 01:40:23;;;;;;;;;;;20.00;67.00;;;;;;5087027;28;43646;-83
2023/05/12 01:42:48;;;;;;;;;;;19.90;66.90;;;;;;5086681;27;43067;-82
2023/05/12 01:45:14;;;;;;;;;;;20.10;66.50;;;;;;5086311;28;42935;-83
2023/05/12 01:47:39;;;;;;;;;;;20.00;66.60;;;;;;5087269;27;42977;-82
2023/05/12 01:50:05;;;;;;;;;;;20.00;66.60;;;;;;5106433;27;42913;-83
2023/05/12 01:52:31;;;;;;;;;;;20.10;66.60;;;;;;5105046;27;42775;-82
2023/05/12 01:54:57;;;;;;;;;;;20.00;66.60;;;;;;5106870;27;42943;-82
2023/05/12 01:57:22;;;;;;;;;;;20.00;66.70;;;;;;5107129;27;42770;-83
2023/05/12 01:59:48;;;;;;;;;;;20.00;66.70;;;;;;5106976;27;42982;-83
2023/05/12 02:02:13;;;;;;;;;;;20.00;66.60;;;;;;5098815;27;42960;-82
2023/05/12 02:04:39;;;;;;;;;;;20.00;66.70;;;;;;5102766;27;43496;-83
2023/05/12 02:07:04;;;;;;;;;;;20.20;66.80;;;;;;5086304;27;42973;-83
2023/05/12 02:09:30;;;;;;;;;;;20.10;66.80;;;;;;5086519;27;43852;-83
2023/05/12 02:11:55;;;;;;;;;;;20.00;66.80;;;;;;5086431;28;42854;-83
2023/05/12 02:14:21;;;;;;;;;;;20.10;66.70;;;;;;5086155;27;43847;-82
2023/05/12 02:16:51;;;;;;;;;;;19.90;66.60;;;;;;5086451;28;42891;-83
2023/05/12 02:19:18;;;;;;;;;;;20.20;67.00;;;;;;5093843;27;43078;-82
2023/05/12 02:21:45;;;;;;;;;;;20.00;67.10;;;;;;5106327;27;43047;-82
2023/05/12 02:24:10;;;;;;;;;;;20.10;66.80;;;;;;5105930;27;43013;-82
2023/05/12 02:26:36;;;;;;;;;;;20.00;67.30;;;;;;5106695;27;42929;-82
2023/05/12 02:29:01;;;;;;;;;;;20.00;66.70;;;;;;5106482;27;42884;-82
2023/05/12 02:31:27;;;;;;;;;;;20.00;66.90;;;;;;5083548;27;43072;-82
2023/05/12 02:33:53;;;;;;;;;;;20.00;66.90;;;;;;5096454;27;43506;-81
2023/05/12 02:36:18;;;;;;;;;;;20.10;67.00;;;;;;5110980;27;42913;-82
2023/05/12 02:38:44;;;;;;;;;;;19.90;66.90;;;;;;5107853;27;44125;-82
2023/05/12 02:41:10;;;;;;;;;;;20.00;67.30;;;;;;5106742;27;42999;-82
2023/05/12 02:43:35;;;;;;;;;;;20.10;67.00;;;;;;5105780;27;42973;-82
2023/05/12 02:46:01;;;;;;;;;;;20.00;66.90;;;;;;5087219;27;42941;-82
2023/05/12 02:48:27;;;;;;;;;;;20.20;67.10;;;;;;5087233;27;43062;-82
2023/05/12 02:50:52;;;;;;;;;;;19.70;67.10;;;;;;5106657;27;42798;-82
2023/05/12 02:53:18;;;;;;;;;;;20.10;67.10;;;;;;5125401;27;42887;-82
2023/05/12 02:55:43;;;;;;;;;;;19.90;67.70;;;;;;5126939;27;42991;-81
2023/05/12 02:58:09;;;;;;;;;;;20.00;67.00;;;;;;5126772;27;43654;-82
2023/05/12 03:00:34;;;;;;;;;;;20.00;67.00;;;;;;5108462;27;43094;-82
2023/05/12 03:03:00;;;;;;;;;;;20.00;67.20;;;;;;5126139;27;42882;-83
2023/05/12 03:05:25;;;;;;;;;;;19.90;67.00;;;;;;5126773;27;42960;-82
2023/05/12 03:07:51;;;;;;;;;;;20.00;67.20;;;;;;5126265;27;43026;-82
2023/05/12 03:10:17;;;;;;;;;;;20.20;67.60;;;;;;5126726;27;43073;-83
2023/05/12 03:12:42;;;;;;;;;;;20.10;67.30;;;;;;5126612;27;44396;-82
2023/05/12 03:15:08;;;;;;;;;;;20.00;67.10;;;;;;5126303;27;42828;-82
2023/05/12 03:17:34;;;;;;;;;;;19.90;67.50;;;;;;5126553;27;42752;-83
2023/05/12 03:20:00;;;;;;;;;;;19.90;67.10;;;;;;5126929;27;43107;-83
2023/05/12 03:22:25;;;;;;;;;;;19.90;67.50;;;;;;5107675;27;43664;-83
2023/05/12 03:24:51;;;;;;;;;;;20.30;67.80;;;;;;5126539;27;42869;-82
2023/05/12 03:27:17;;;;;;;;;;;20.00;67.70;;;;;;5118618;27;43009;-82
2023/05/12 03:29:42;;;;;;;;;;;20.10;67.30;;;;;;5105406;27;42853;-82
2023/05/12 03:32:08;;;;;;;;;;;20.10;67.30;;;;;;5105690;27;44030;-82
2023/05/12 03:34:33;;;;;;;;;;;19.70;67.70;;;;;;5104578;27;42947;-83
2023/05/12 03:36:59;;;;;;;;;;;20.10;67.40;;;;;;5100971;27;43082;-82
2023/05/12 03:39:24;;;;;;;;;;;20.00;67.50;;;;;;5103264;27;43148;-82
2023/05/12 03:41:50;;;;;;;;;;;20.10;67.20;;;;;;5104576;27;42901;-82
2023/05/12 03:44:15;;;;;;;;;;;20.10;67.40;;;;;;5104893;27;42859;-83
2023/05/12 03:46:41;;;;;;;;;;;20.00;67.50;;;;;;5100518;27;43549;-82
2023/05/12 03:49:07;;;;;;;;;;;19.90;67.30;;;;;;5108614;27;42995;-82
2023/05/12 03:51:32;;;;;;;;;;;20.00;67.40;;;;;;5103121;27;43114;-84
2023/05/12 03:53:58;;;;;;;;;;;20.20;67.60;;;;;;5099543;27;43117;-84
2023/05/12 03:56:23;;;;;;;;;;;20.20;67.60;;;;;;5080101;27;45847;-82
2023/05/12 03:58:49;;;;;;;;;;;20.00;67.40;;;;;;5097484;27;42969;-83
2023/05/12 04:01:14;;;;;;;;;;;20.10;67.40;;;;;;5098375;27;43734;-82
2023/05/12 04:03:40;;;;;;;;;;;20.00;67.50;;;;;;5097426;27;42956;-84
2023/05/12 04:06:06;;;;;;;;;;;19.90;67.70;;;;;;5104007;27;42891;-83
2023/05/12 04:08:31;;;;;;;;;;;20.10;67.60;;;;;;5099196;27;42968;-82
2023/05/12 04:10:57;;;;;;;;;;;20.20;67.80;;;;;;5091696;27;43148;-83
2023/05/12 04:13:23;;;;;;;;;;;20.10;67.60;;;;;;5092902;27;43007;-82
2023/05/12 04:15:49;;;;;;;;;;;19.90;67.40;;;;;;5099814;27;42991;-82
2023/05/12 04:18:14;;;;;;;;;;;20.00;67.50;;;;;;5095979;27;43066;-82
2023/05/12 04:20:40;;;;;;;;;;;20.00;67.40;;;;;;5095411;27;43049;-84
2023/05/12 04:23:05;;;;;;;;;;;20.00;67.60;;;;;;5097684;27;42960;-84
2023/05/12 04:25:31;;;;;;;;;;;19.80;67.40;;;;;;5088525;27;44554;-83
2023/05/12 04:27:57;;;;;;;;;;;19.90;67.40;;;;;;5108585;27;42892;-84
2023/05/12 04:30:22;;;;;;;;;;;20.00;67.40;;;;;;5107685;27;43521;-83
2023/05/12 04:32:48;;;;;;;;;;;20.20;67.60;;;;;;5107596;27;43035;-85
2023/05/12 04:35:14;;;;;;;;;;;20.20;67.50;;;;;;5095772;27;43529;-84
2023/05/12 04:37:40;;;;;;;;;;;20.00;67.40;;;;;;5093983;27;42987;-82
2023/05/12 04:40:06;;;;;;;;;;;20.10;67.60;;;;;;5098106;27;43859;-82
2023/05/12 04:42:32;;;;;;;;;;;20.00;67.60;;;;;;5091073;27;42983;-81
2023/05/12 04:44:57;;;;;;;;;;;19.90;67.50;;;;;;5098271;27;44993;-82
2023/05/12 04:47:23;;;;;;;;;;;20.00;67.60;;;;;;5079147;27;43122;-82
2023/05/12 04:49:48;;;;;;;;;;;20.00;67.60;;;;;;5092689;27;43607;-81
2023/05/12 04:52:14;;;;;;;;;;;19.90;67.70;;;;;;5094019;27;43128;-81
2023/05/12 04:54:39;;;;;;;;;;;20.10;67.70;;;;;;5092752;27;43956;-80
2023/05/12 04:57:05;;;;;;;;;;;20.00;67.80;;;;;;5099007;27;43082;-81
2023/05/12 04:59:30;;;;;;;;;;;20.10;68.00;;;;;;5107000;27;43075;-81
2023/05/12 05:01:56;;;;;;;;;;;20.20;68.00;;;;;;5106040;27;43297;-82
2023/05/12 05:04:21;;;;;;;;;;;20.30;67.90;;;;;;5103757;27;42926;-82
2023/05/12 05:06:47;;;;;;;;;;;19.90;67.90;;;;;;5102450;27;42964;-80
2023/05/12 05:09:12;;;;;;;;;;;20.10;68.30;;;;;;5107032;27;42928;-83
2023/05/12 05:11:38;;;;;;;;;;;20.10;68.00;;;;;;5107365;27;42948;-83
2023/05/12 05:14:03;;;;;;;;;;;20.00;67.90;;;;;;5093089;27;43481;-82
2023/05/12 05:16:29;;;;;;;;;;;20.00;68.30;;;;;;5105585;27;43083;-79
2023/05/12 05:18:54;;;;;;;;;;;20.10;68.10;;;;;;5105473;27;42947;-86
2023/05/12 05:21:20;;;;;;;;;;;19.90;68.00;;;;;;5094113;27;42962;-86
2023/05/12 05:23:45;;;;;;;;;;;20.10;68.00;;;;;;5120942;27;42971;-84
2023/05/12 05:26:11;;;;;;;;;;;20.10;67.80;;;;;;5105370;27;42930;-85
2023/05/12 05:28:38;;;;;;;;;;;20.10;67.80;;;;;;5106278;27;42986;-86
2023/05/12 05:31:04;;;;;;;;;;;20.00;67.90;;;;;;5089189;27;43010;-85
2023/05/12 05:33:30;;;;;;;;;;;20.10;68.00;;;;;;5086829;27;44108;-86
2023/05/12 05:35:56;;;;;;;;;;;20.10;67.90;;;;;;5067512;28;43679;-87
2023/05/12 05:38:21;;;;;;;;;;;20.10;68.20;;;;;;5086176;28;43071;-87
2023/05/12 05:40:47;;;;;;;;;;;20.20;68.00;;;;;;5086066;28;43137;-83
2023/05/12 05:43:12;;;;;;;;;;;20.00;68.00;;;;;;5087448;27;43215;-83
2023/05/12 05:45:38;;;;;;;;;;;20.10;68.20;;;;;;5084640;27;42868;-89
2023/05/12 05:48:03;;;;;;;;;;;20.10;68.10;;;;;;5085042;28;43853;-89
2023/05/12 05:50:29;;;;;;;;;;;20.10;68.20;;;;;;5068014;28;42919;-89
2023/05/12 05:52:54;;;;;;;;;;;20.20;68.40;;;;;;5086293;28;43039;-89
2023/05/12 05:55:20;;;;;;;;;;;20.10;68.30;;;;;;5086659;28;43168;-89
2023/05/12 05:57:46;;;;;;;;;;;20.20;68.40;;;;;;5086692;28;43600;-89
2023/05/12 06:00:13;;;;;;;;;;;20.20;68.30;;;;;;5087322;28;42802;-88
2023/05/12 06:02:39;;;;;;;;;;;20.10;68.50;;;;;;5067759;28;44933;-89
2023/05/12 06:05:05;;;;;;;;;;;20.10;68.30;;;;;;5067626;28;43074;-89
2023/05/12 06:07:31;;;;;;;;;;;20.10;68.40;;;;;;5067791;28;44695;-89
2023/05/12 06:09:56;;;;;;;;;;;20.10;68.40;;;;;;5086571;28;43002;-88
2023/05/12 06:12:22;;;;;;;;;;;20.00;68.40;;;;;;5067875;28;45653;-89
2023/05/12 06:14:47;;;;;;;;;;;20.10;68.50;;;;;;5086343;28;42898;-89
2023/05/12 06:17:13;;;;;;;;;;;20.00;68.30;;;;;;5086029;28;43719;-89
2023/05/12 06:19:38;;;;;;;;;;;20.00;68.40;;;;;;5086471;28;42815;-88
2023/05/12 06:22:04;;;;;;;;;;;20.20;68.70;;;;;;5086571;28;42949;-89
2023/05/12 06:24:30;;;;;;;;;;;20.10;68.70;;;;;;5086037;28;42866;-89
2023/05/12 06:26:55;;;;;;;;;;;20.10;68.60;;;;;;5067204;28;44811;-89
2023/05/12 06:29:21;;;;;;;;;;;20.00;68.60;;;;;;5085244;28;42851;-89
2023/05/12 06:31:46;;;;;;;;;;;20.00;68.60;;;;;;5085615;28;43900;-89
2023/05/12 06:34:12;;;;;;;;;;;20.10;68.70;;;;;;5086263;28;42958;-89
2023/05/12 06:36:38;;;;;;;;;;;20.00;68.60;;;;;;5067605;28;44457;-89
2023/05/12 06:39:04;;;;;;;;;;;20.30;68.60;;;;;;5067760;28;42967;-89
2023/05/12 06:41:30;;;;;;;;;;;20.20;68.80;;;;;;5067752;28;44628;-90
2023/05/12 06:43:56;;;;;;;;;;;20.10;68.60;;;;;;5085807;28;43119;-89
2023/05/12 06:46:21;;;;;;;;;;;19.70;68.50;;;;;;5085317;28;42973;-89
2023/05/12 06:48:47;;;;;;;;;;;20.20;68.80;;;;;;5085726;28;42964;-89
2023/05/12 06:51:12;;;;;;;;;;;20.20;68.80;;;;;;5086076;28;43641;-89
2023/05/12 06:53:41;;;;;;;;;;;20.10;68.50;;;;;;5066883;28;42875;-89
2023/05/12 06:56:07;;;;;;;;;;;19.90;68.50;;;;;;5085464;28;42891;-89
2023/05/12 06:58:33;;;;;;;;;;;20.10;68.50;;;;;;5085648;28;42957;-89
2023/05/12 07:00:58;;;;;;;;;;;20.00;68.60;;;;;;5067271;28;45589;-89
2023/05/12 07:03:24;;;;;;;;;;;20.20;68.70;;;;;;5085481;28;43081;-89
2023/05/12 07:05:50;;;;;;;;;;;20.00;68.50;;;;;;5067377;28;44885;-89
2023/05/12 07:08:16;;;;;;;;;;;20.00;68.30;;;;;;5085513;28;43052;-89
2023/05/12 07:10:41;;;;;;;;;;;20.00;68.50;;;;;;5085622;28;42895;-89
2023/05/12 07:13:07;;;;;;;;;;;20.10;68.40;;;;;;5085167;27;42950;-88
2023/05/12 07:15:33;;;;;;;;;;;20.20;68.40;;;;;;5085278;28;43463;-90
2023/05/12 07:17:58;;;;;;;;;;;20.20;68.40;;;;;;5085737;28;42780;-89
2023/05/12 07:23:30;;;;;;;;;;;20.10;68.70;;;;;;5082721;28;42877;-89
2023/05/12 07:25:56;;;;;;;;;;;20.10;68.40;;;;;;5084944;28;43726;-89
2023/05/12 07:28:21;;;;;;;;;;;20.10;68.50;;;;;;5084443;28;42927;-89
2023/05/12 07:30:47;;;;;;;;;;;20.20;68.90;;;;;;5085349;28;42885;-89
2023/05/12 07:33:13;;;;;;;;;;;20.20;68.60;;;;;;5084962;28;42903;-89
2023/05/12 07:35:38;;;;;;;;;;;20.10;68.40;;;;;;5085129;28;43100;-89
2023/05/12 07:38:04;;;;;;;;;;;20.10;68.80;;;;;;5085406;28;42930;-89
2023/05/12 07:40:29;;;;;;;;;;;20.10;68.70;;;;;;5085286;28;43266;-89
2023/05/12 07:42:55;;;;;;;;;;;20.10;68.40;;;;;;5085305;28;42997;-89
2023/05/12 07:45:24;;;;;;;;;;;20.20;68.50;;;;;;5085462;28;42919;-88
2023/05/12 07:47:49;;;;;;;;;;;20.20;68.30;;;;;;5066251;28;42980;-88
2023/05/12 07:50:16;;;;;;;;;;;20.10;68.60;;;;;;5092161;27;44015;-88
2023/05/12 07:52:48;;;;;;;;;;;20.10;68.40;;;;;;5105418;27;42922;-89
2023/05/12 07:55:14;;;;;;;;;;;20.10;68.50;;;;;;5086567;27;44417;-89
2023/05/12 07:57:39;;;;;;;;;;;20.20;68.90;;;;;;5100838;27;43126;-87
2023/05/12 08:00:05;;;;;;;;;;;;;;;;;;5098401;27;43550;-88
2023/05/12 08:02:31;;;;;;;;;;;20.20;68.60;;;;;;5080318;27;43019;-87
2023/05/12 08:04:56;;;;;;;;;;;20.00;69.10;;;;;;5079861;27;44430;-88
2023/05/12 08:07:22;;;;;;;;;;;20.20;69.40;;;;;;5100576;27;43356;-87
2023/05/12 08:09:47;;;;;;;;;;;20.30;68.90;;;;;;5109428;27;42914;-88
2023/05/12 08:12:13;;;;;;;;;;;20.30;68.70;;;;;;5077833;27;42984;-88
2023/05/12 08:14:38;;;;;;;;;;;20.20;68.80;;;;;;5104094;27;43765;-88
2023/05/12 08:17:05;;;;;;;;;;;20.10;68.80;;;;;;5077149;27;42947;-87
2023/05/12 08:19:31;;;;;;;;;;;20.20;68.80;;;;;;5079099;27;45438;-88
2023/05/12 08:21:56;;;;;;;;;;;20.10;68.80;;;;;;5077952;27;43070;-88
2023/05/12 08:24:22;;;;;;;;;;;20.20;68.70;;;;;;5099192;27;43601;-88
2023/05/12 08:26:47;;;;;;;;;;;20.10;68.30;;;;;;5102657;27;42989;-87
2023/05/12 08:29:14;;;;;;;;;;;20.20;68.60;;;;;;5089455;27;44750;-87
2023/05/12 08:31:39;;;;;;;;;;;20.30;68.70;;;;;;5085591;27;43026;-87
2023/05/12 08:34:05;;;;;;;;;;;20.30;68.50;;;;;;5085324;27;44585;-87
2023/05/12 08:36:31;;;;;;;;;;;20.30;68.90;;;;;;5117270;27;43142;-87
2023/05/12 08:38:57;;;;;;;;;;;20.30;68.30;;;;;;5107086;27;44048;-87
2023/05/12 08:41:30;;;;;;;;;;;20.20;68.40;;;;;;5129466;27;42936;-87
2023/05/12 08:43:56;;;;;;;;;;;20.20;68.10;;;;;;5115810;27;43086;-86
2023/05/12 08:46:21;;;;;;;;;;;20.30;68.30;;;;;;5108355;27;42839;-87
2023/05/12 08:48:49;;;;;;;;;;;20.20;68.00;;;;;;5108276;27;43795;-87
2023/05/12 08:51:16;;;;;;;;;;;20.20;68.00;;;;;;5107612;27;42992;-87
2023/05/12 08:53:42;;;;;;;;;;;20.20;68.10;;;;;;5107872;27;43043;-87
2023/05/12 08:56:08;;;;;;;;;;;20.30;68.10;;;;;;5089020;27;42982;-88
2023/05/12 08:58:37;;;;;;;;;;;20.20;68.00;;;;;;5102949;27;43024;-88
2023/05/12 09:01:03;;;;;;;;;;;20.20;68.00;;;;;;5105007;27;43197;-87
2023/05/12 09:03:29;;;;;;;;;;;20.30;68.10;;;;;;5101736;27;43024;-87
2023/05/12 09:05:56;;;;;;;;;;;20.30;68.10;;;;;;5099745;27;43040;-87
2023/05/12 09:08:22;;;;;;;;;;;20.20;67.80;;;;;;5098683;27;42989;-86
2023/05/12 09:10:48;;;;;;;;;;;20.20;67.70;;;;;;5098110;27;44011;-87
2023/05/12 09:13:19;;;;;;;;;;;20.10;67.90;;;;;;5097177;27;43091;-87
2023/05/12 09:15:46;;;;;;;;;;;20.20;67.80;;;;;;5093936;27;43458;-88
2023/05/12 09:18:11;;;;;;;;;;;20.20;67.50;;;;;;5101812;27;44022;-87
2023/05/12 09:20:37;;;;;;;;;;;20.30;67.60;;;;;;5107476;27;44170;-88
2023/05/12 09:23:03;;;;;;;;;;;;;;;;;;5101161;27;42984;-88
2023/05/12 09:25:29;;;;;;;;;;;20.20;67.20;;;;;;5105151;27;42895;-87
2023/05/12 09:27:55;;;;;;;;;;;20.20;67.40;;;;;;5104964;27;42974;-87
2023/05/12 09:30:30;;;;;;;;;;;20.20;67.30;;;;;;5082568;27;42909;-87
2023/05/12 09:33:12;;;;;;;;;;;20.20;67.20;;;;;;5103385;27;43721;-87
2023/05/12 09:35:41;;;;;;;;;;;20.30;67.10;;;;;;5102310;27;42997;-87
2023/05/12 09:38:11;;;;;;;;;;;20.00;67.00;;;;;;5077272;27;45682;-87
2023/05/12 09:40:36;;;;;;;;;;;20.10;67.00;;;;;;5097943;27;43042;-86
2023/05/12 09:43:03;;;;;;;;;;;20.30;67.20;;;;;;5082060;27;44881;-88
2023/05/12 09:45:31;;;;;;;;;;;20.10;67.10;;;;;;5099531;27;43075;-87
2023/05/12 09:48:01;;;;;;;;;;;20.20;66.90;;;;;;5096211;27;43077;-77
2023/05/12 09:50:28;;;;;;;;;;;20.00;66.80;;;;;;5097982;27;43446;-80
2023/05/12 09:52:54;;;;;;;;;;;20.00;67.10;;;;;;5090290;27;44539;-79
2023/05/12 09:55:20;;;;;;;;;;;20.10;66.80;;;;;;5099218;27;43002;-79
2023/05/12 09:57:45;;;;;;;;;;;20.10;66.50;;;;;;5099303;27;43888;-79
2023/05/12 10:00:19;;;;;;;;;;;20.30;66.80;;;;;;5093929;27;43238;-79
2023/05/12 10:02:47;;;;;;;;;;;20.20;66.90;;;;;;5094194;27;42953;-79
2023/05/12 10:05:15;;;;;;;;;;;19.90;66.90;;;;;;5095151;27;42936;-76
2023/05/12 10:07:43;;;;;;;;;;;20.20;67.20;;;;;;5103113;27;44512;-79
2023/05/12 10:10:09;;;;;;;;;;;20.00;66.70;;;;;;5090085;27;42909;-81
2023/05/12 10:12:34;;;;;;;;;;;20.00;65.70;;;;;;5098867;27;43579;-80
2023/05/12 10:15:01;;;;;;;;;;;20.00;66.30;;;;;;5094358;27;43060;-80
2023/05/12 10:17:27;;;;;;;;;;;20.80;66.70;;;;;;5101306;27;43580;-78
2023/05/12 10:19:53;;;;;;;;;;;20.10;66.40;;;;;;5104316;27;42909;-79
2023/05/12 10:22:18;;;;;;;;;;;20.10;66.10;;;;;;5102451;27;44131;-78
2023/05/12 10:24:44;;;;;;;;;;;20.10;66.00;;;;;;5092753;27;43083;-78
2023/05/12 10:27:10;;;;;;;;;;;20.10;66.70;;;;;;5084227;28;43211;-77
2023/05/12 10:29:37;;;;;;;;;;;20.20;66.50;;;;;;5084823;28;42953;-79
2023/05/12 10:32:03;;;;;;;;;;;20.00;66.50;;;;;;5080386;27;45245;-78
2023/05/12 10:34:29;;;;;;;;;;;20.30;66.50;;;;;;5103389;27;42928;-78
2023/05/12 10:36:57;;;;;;;;;;;20.20;66.60;;;;;;5104773;27;43546;-77
2023/05/12 10:39:29;;;;;;;;;;;20.00;66.40;;;;;;5086860;27;42973;-77
2023/05/12 10:42:04;;;;;;;;;;;20.10;64.50;;;;;;5104900;27;43552;-78
2023/05/12 10:44:29;;;;;;;;;;;20.10;64.40;;;;;;5103988;27;42933;-79
2023/05/12 10:46:58;;;;;;;;;;;20.20;67.00;;;;;;5093561;27;44117;-78
2023/05/12 10:49:31;;;;;;;;;;;20.20;66.40;;;;;;5089096;27;42962;-79
2023/05/12 10:52:00;;;;;;;;;;;20.10;66.50;;;;;;5089668;27;43114;-77
2023/05/12 10:54:26;;;;;;;;;;;20.70;64.50;;;;;;5087058;27;43009;-77
2023/05/12 10:56:51;;;;;;;;;;;20.00;66.50;;;;;;5094628;27;42880;-77
2023/05/12 10:59:18;;;;;;;;;;;20.10;66.30;;;;;;5090538;27;43238;-78
2023/05/12 11:01:59;;;;;;;;;;;20.10;66.70;;;;;;5093158;27;43633;-78
2023/05/12 11:04:35;;;;;;;;;;;20.00;66.40;;;;;;5094195;27;43038;-77
2023/05/12 11:07:02;;;;;;;;;;;20.10;65.80;;;;;;5092759;27;44357;-76
2023/05/12 11:09:28;;;;;;;;;;;20.20;66.00;;;;;;5097703;27;43040;-75
2023/05/12 11:11:54;;;;;;;;;;;20.00;65.60;;;;;;5096398;27;43497;-78
2023/05/12 11:14:19;;;;;;;;;;;20.10;66.20;;;;;;5104696;27;42995;-76
2023/05/12 11:16:45;;;;;;;;;;;20.10;65.80;;;;;;5087270;27;42962;-79
2023/05/12 11:19:11;;;;;;;;;;;19.90;66.00;;;;;;5099825;27;42849;-77
2023/05/12 11:21:37;;;;;;;;;;;18.00;64.90;;;;;;5093817;27;42862;-76
2023/05/12 11:24:03;;;;;;;;;;;20.00;66.10;;;;;;5092617;27;43043;-77
2023/05/12 11:26:28;;;;;;;;;;;19.90;66.20;;;;;;5103864;27;43072;-75
2023/05/12 11:28:57;;;;;;;;;;;20.10;66.50;;;;;;5105078;27;42996;-76
2023/05/12 11:31:22;;;;;;;;;;;19.90;66.20;;;;;;5096765;27;43635;-75
2023/05/12 11:33:48;;;;;;;;;;;19.90;66.50;;;;;;5091901;27;42913;-80
2023/05/12 11:36:15;;;;;;;;;;;20.10;66.80;;;;;;5086680;27;43261;-75
2023/05/12 11:38:47;;;;;;;;;;;20.10;66.80;;;;;;5104218;27;42983;-75
2023/05/12 11:41:12;;;;;;;;;;;20.10;67.10;;;;;;5100002;27;43039;-76
2023/05/12 11:43:38;;;;;;;;;;;19.90;67.10;;;;;;5102500;27;42947;-76
2023/05/12 11:46:03;;;;;;;;;;;20.00;67.70;;;;;;5094367;27;42985;-80
2023/05/12 11:48:33;;;;;;;;;;;20.00;67.90;;;;;;5084979;28;42922;-76
2023/05/12 11:50:59;;;;;;;;;;;19.90;68.30;;;;;;5089869;27;42829;-75
2023/05/12 11:53:24;;;;;;;;;;;19.90;68.30;;;;;;5105725;27;42863;-75
2023/05/12 11:55:50;;;;;;;;;;;20.00;67.90;;;;;;5102316;27;43514;-75
2023/05/12 11:58:20;;;;;;;;;;;19.90;67.20;;;;;;5104862;27;43147;-76
2023/05/12 12:00:47;;;;;;;;;;;20.10;67.50;;;;;;5104564;27;43684;-83
2023/05/12 12:03:13;;;;;;;;;;;20.00;68.00;;;;;;5101065;27;43013;-81
2023/05/12 12:05:40;;;;;;;;;;;20.00;68.00;;;;;;5095925;27;43484;-76
2023/05/12 12:08:07;;;;;;;;;;;20.10;67.80;;;;;;5105970;27;43331;-78
2023/05/12 12:10:33;;;;;;;;;;;20.00;67.80;;;;;;5101664;27;44212;-79
2023/05/12 12:13:00;;;;;;;;;;;19.80;67.60;;;;;;5102614;27;42992;-79
2023/05/12 12:15:25;;;;;;;;;;;19.90;67.30;;;;;;5099867;27;43966;-77
2023/05/12 12:17:51;;;;;;;;;;;20.20;67.80;;;;;;5087376;27;42921;-75
2023/05/12 12:20:17;;;;;;;;;;;20.00;67.90;;;;;;5088497;28;42952;-75
2023/05/12 12:22:43;;;;;;;;;;;19.80;68.00;;;;;;5106179;27;42834;-77
2023/05/12 12:25:08;;;;;;;;;;;20.10;68.10;;;;;;5099661;27;42988;-75
2023/05/12 12:27:34;;;;;;;;;;;19.90;67.90;;;;;;5106321;27;42997;-75
2023/05/12 12:29:59;;;;;;;;;;;19.80;68.20;;;;;;5106262;27;43506;-76
2023/05/12 12:32:25;;;;;;;;;;;20.10;68.10;;;;;;5107206;27;42980;-76
2023/05/12 12:34:52;;;;;;;;;;;20.00;67.50;;;;;;5107019;27;43031;-79
2023/05/12 12:37:17;;;;;;;;;;;20.10;67.20;;;;;;5097042;27;43095;-85
2023/05/12 12:39:43;;;;;;;;;;;20.20;67.00;;;;;;5089298;27;43685;-77
2023/05/12 12:42:08;;;;;;;;;;;20.10;66.80;;;;;;5104192;27;42972;-77
2023/05/12 12:44:34;;;;;;;;;;;19.80;67.10;;;;;;5099354;27;43539;-76
2023/05/12 12:46:59;;;;;;;;;;;20.00;66.70;;;;;;5105216;27;43578;-76
2023/05/12 12:49:25;;;;;;;;;;;20.00;66.60;;;;;;5096152;27;43903;-76
2023/05/12 12:51:50;;;;;;;;;;;20.10;66.30;;;;;;5090193;27;42976;-75
2023/05/12 12:54:16;;;;;;;;;;;20.40;67.00;;;;;;5095407;27;43017;-75
2023/05/12 12:56:43;;;;;;;;;;;19.90;66.40;;;;;;5096469;27;42959;-76
2023/05/12 12:59:08;;;;;;;;;;;20.00;66.80;;;;;;5097182;27;43586;-76
2023/05/12 13:01:34;;;;;;;;;;;20.00;66.70;;;;;;5096656;27;43359;-77
2023/05/12 13:03:59;;;;;;;;;;;19.90;67.10;;;;;;5093135;27;43323;-79
2023/05/12 13:06:25;;;;;;;;;;;19.70;67.30;;;;;;5097538;27;43048;-81
2023/05/12 13:08:51;;;;;;;;;;;19.60;67.50;;;;;;5079598;27;44634;-78
2023/05/12 13:11:17;;;;;;;;;;;19.90;67.00;;;;;;5096092;27;43036;-76
2023/05/12 13:13:43;;;;;;;;;;;20.00;66.70;;;;;;5095318;27;43195;-81
2023/05/12 13:16:09;;;;;;;;;;;20.00;66.70;;;;;;5097498;27;43019;-80
2023/05/12 13:18:34;;;;;;;;;;;19.90;67.00;;;;;;5095937;27;43443;-76
2023/05/12 13:21:00;;;;;;;;;;;20.00;67.00;;;;;;5096871;27;43040;-79
2023/05/12 13:23:25;;;;;;;;;;;20.20;67.10;;;;;;5096291;27;43401;-75
2023/05/12 13:25:51;;;;;;;;;;;20.00;67.30;;;;;;5102880;27;42801;-76
2023/05/12 13:28:16;;;;;;;;;;;19.90;67.20;;;;;;5096696;27;43002;-79
2023/05/12 13:30:42;;;;;;;;;;;20.00;67.50;;;;;;5095794;27;43219;-75
2023/05/12 13:33:08;;;;;;;;;;;19.80;67.10;;;;;;5095316;27;43108;-75
2023/05/12 13:35:34;;;;;;;;;;;19.90;67.50;;;;;;5093322;27;43118;-75
2023/05/12 13:37:59;;;;;;;;;;;19.90;67.20;;;;;;5074243;27;43944;-78
2023/05/12 13:40:25;;;;;;;;;;;19.60;67.10;;;;;;5102112;27;42889;-80
2023/05/12 13:42:50;;;;;;;;;;;19.90;67.70;;;;;;5092804;27;43744;-81
2023/05/12 13:45:16;;;;;;;;;;;20.10;67.80;;;;;;5076831;27;43000;-80
2023/05/12 13:47:41;;;;;;;;;;;19.80;67.40;;;;;;5074006;27;42985;-80
2023/05/12 13:50:07;;;;;;;;;;;19.80;67.70;;;;;;5094653;27;43024;-81
2023/05/12 13:52:32;;;;;;;;;;;20.00;66.80;;;;;;5094945;27;43271;-81
2023/05/12 13:54:58;;;;;;;;;;;19.90;67.10;;;;;;5096426;27;43010;-75
2023/05/12 13:57:23;;;;;;;;;;;19.90;67.10;;;;;;5080042;27;44359;-74
2023/05/12 13:59:50;;;;;;;;;;;20.00;67.30;;;;;;5092934;27;42772;-81
2023/05/12 14:02:16;;;;;;;;;;;19.90;67.80;;;;;;5075265;27;45317;-75
2023/05/12 14:04:42;;;;;;;;;;;19.80;67.70;;;;;;5098534;27;43163;-75
2023/05/12 14:07:07;;;;;;;;;;;19.90;67.80;;;;;;5098846;27;42974;-79
2023/05/12 14:09:34;;;;;;;;;;;19.90;67.80;;;;;;5094448;27;42994;-76
2023/05/12 14:12:01;;;;;;;;;;;19.90;67.80;;;;;;5105560;27;43791;-75
2023/05/12 14:14:26;;;;;;;;;;;19.80;67.90;;;;;;5072021;28;43528;-74